Elk Grove, Pennsylvania
Current Conditions -  °F | °C
As of 9:55 AM on Tuesday 21 Oct 2014 (Local Time) from KHZL Reporting Station
Overcast Overcast  
Wind Chill: 52°   Ceiling: 500
Heat Index: 52°   Visibility: 7mi
Dew Point: 48°   Wind: 6mph
Humidity: 88%   Direction: 150°SSE
Pressure: 29.9"   Gusts: NA
Location:  41.2534°N, 76.3299°W
Report Text: KHZL 211355Z AUTO 15005KT 7SM BKN005 OVC050 11/09 A2990 RMK AO2
Loading
Personal Weather Stations






























Interactive Weather Map
Tropical Storm Tracking
New forecast layout! Learn more

10-Day Weather Forecast

Advertisements
Track Severe Weather on mobile